createdAt,value
2018-02-09T00:00:53.883Z,1012.50
2018-02-09T00:01:53.890Z,1012.50
2018-02-09T00:02:53.899Z,1012.47
2018-02-09T00:03:53.907Z,1012.47
2018-02-09T00:04:53.916Z,1012.48
2018-02-09T00:05:53.925Z,1012.43
2018-02-09T00:06:54.034Z,1012.43
2018-02-09T00:07:53.945Z,1012.47
2018-02-09T00:08:53.950Z,1012.45
2018-02-09T00:09:53.958Z,1012.40
2018-02-09T00:10:53.965Z,1012.39
2018-02-09T00:11:53.975Z,1012.39
2018-02-09T00:12:53.982Z,1012.37
2018-02-09T00:13:53.991Z,1012.40
2018-02-09T00:14:53.997Z,1012.41
2018-02-09T00:15:54.007Z,1012.39
2018-02-09T00:16:54.015Z,1012.36
2018-02-09T00:17:54.023Z,1012.40
2018-02-09T00:18:54.030Z,1012.41
2018-02-09T00:19:54.041Z,1012.43
2018-02-09T00:20:54.049Z,1012.42
2018-02-09T00:21:54.059Z,1012.42
2018-02-09T00:22:54.068Z,1012.48
2018-02-09T00:23:54.072Z,1012.44
2018-02-09T00:24:54.080Z,1012.46
2018-02-09T00:25:54.090Z,1012.41
2018-02-09T00:26:54.097Z,1012.41
2018-02-09T00:27:54.105Z,1012.39
2018-02-09T00:28:54.114Z,1012.38
2018-02-09T00:29:54.122Z,1012.40
2018-02-09T00:30:54.131Z,1012.40
2018-02-09T00:31:54.139Z,1012.39
2018-02-09T00:32:54.146Z,1012.41
2018-02-09T00:33:54.155Z,1012.42
2018-02-09T00:34:54.162Z,1012.36
2018-02-09T00:35:54.170Z,1012.34
2018-02-09T00:36:54.179Z,1012.38
2018-02-09T00:37:54.187Z,1012.34
2018-02-09T00:38:54.196Z,1012.36
2018-02-09T00:39:54.203Z,1012.32
2018-02-09T00:40:54.211Z,1012.34
2018-02-09T00:41:54.219Z,1012.30
2018-02-09T00:42:54.228Z,1012.33
2018-02-09T00:43:54.236Z,1012.35
2018-02-09T00:44:54.246Z,1012.32
2018-02-09T00:45:54.253Z,1012.38
2018-02-09T00:46:54.261Z,1012.35
2018-02-09T00:47:54.270Z,1012.38
2018-02-09T00:48:54.278Z,1012.34
2018-02-09T00:49:54.284Z,1012.35
2018-02-09T00:50:54.293Z,1012.29
2018-02-09T00:51:54.302Z,1012.31
2018-02-09T00:52:54.310Z,1012.32
2018-02-09T00:53:54.318Z,1012.31
2018-02-09T00:54:54.326Z,1012.30
2018-02-09T00:55:54.334Z,1012.31
2018-02-09T00:56:54.342Z,1012.30
2018-02-09T00:57:54.351Z,1012.34
2018-02-09T00:58:54.360Z,1012.30
2018-02-09T00:59:54.368Z,1012.33
2018-02-09T01:00:54.375Z,1012.32
2018-02-09T01:01:54.383Z,1012.35
2018-02-09T01:02:54.392Z,1012.30
2018-02-09T01:03:54.401Z,1012.32
2018-02-09T01:04:54.409Z,1012.32
2018-02-09T01:05:54.416Z,1012.32
2018-02-09T01:06:54.423Z,1012.30
2018-02-09T01:07:54.433Z,1012.33
2018-02-09T01:08:54.441Z,1012.35
2018-02-09T01:09:54.447Z,1012.32
2018-02-09T01:10:54.459Z,1012.30
2018-02-09T01:11:54.465Z,1012.29
2018-02-09T01:12:54.475Z,1012.30
2018-02-09T01:13:54.481Z,1012.28
2018-02-09T01:14:54.490Z,1012.31
2018-02-09T01:15:54.498Z,1012.26
2018-02-09T01:16:54.511Z,1012.27
2018-02-09T01:17:54.514Z,1012.29
2018-02-09T01:18:54.523Z,1012.26
2018-02-09T01:19:54.532Z,1012.25
2018-02-09T01:20:54.539Z,1012.25
2018-02-09T01:21:54.547Z,1012.24
2018-02-09T01:22:54.560Z,1012.22
2018-02-09T01:23:54.562Z,1012.20
2018-02-09T01:24:54.672Z,1012.18
2018-02-09T01:25:54.580Z,1012.19
2018-02-09T01:26:54.587Z,1012.15
2018-02-09T01:27:54.598Z,1012.13
2018-02-09T01:28:54.705Z,1012.13
2018-02-09T01:29:54.712Z,1012.14
2018-02-09T01:30:54.621Z,1012.12
2018-02-09T01:31:54.629Z,1012.09
2018-02-09T01:32:54.639Z,1012.08
2018-02-09T01:33:54.645Z,1012.07
2018-02-09T01:34:54.655Z,1012.06
2018-02-09T01:35:54.662Z,1012.04
2018-02-09T01:36:54.672Z,1012.05
2018-02-09T01:37:54.679Z,1012.07
2018-02-09T01:38:54.687Z,1012.03
2018-02-09T01:39:54.696Z,1012.05
2018-02-09T01:40:54.803Z,1012.05
2018-02-09T01:41:54.712Z,1012.05
2018-02-09T01:42:54.720Z,1011.98
2018-02-09T01:43:54.728Z,1012.03
2018-02-09T01:44:54.738Z,1011.99
2018-02-09T01:45:54.746Z,1011.96
2018-02-09T01:46:54.755Z,1011.96
2018-02-09T01:47:54.764Z,1011.94
2018-02-09T01:48:54.772Z,1011.96
2018-02-09T01:49:54.779Z,1011.95
2018-02-09T01:50:54.789Z,1011.95
2018-02-09T01:51:54.796Z,1011.96
2018-02-09T01:52:54.807Z,1011.95
2018-02-09T01:53:54.814Z,1011.88
2018-02-09T01:54:54.820Z,1011.93
2018-02-09T01:55:54.830Z,1011.89
2018-02-09T01:56:54.841Z,1011.91
2018-02-09T01:57:54.846Z,1011.90
2018-02-09T01:58:54.853Z,1011.93
2018-02-09T01:59:54.862Z,1011.93
2018-02-09T02:00:54.872Z,1011.89
2018-02-09T02:01:54.880Z,1011.85
2018-02-09T02:02:54.887Z,1011.86
2018-02-09T02:03:54.895Z,1011.84
2018-02-09T02:04:54.903Z,1011.83
2018-02-09T02:05:54.913Z,1011.81
2018-02-09T02:06:54.923Z,1011.82
2018-02-09T02:07:54.929Z,1011.82
2018-02-09T02:08:54.937Z,1011.83
2018-02-09T02:09:54.943Z,1011.82
2018-02-09T02:10:54.953Z,1011.82
2018-02-09T02:11:55.064Z,1011.78
2018-02-09T02:12:54.971Z,1011.77
2018-02-09T02:13:54.978Z,1011.75
2018-02-09T02:14:54.988Z,1011.79
2018-02-09T02:15:54.997Z,1011.77
2018-02-09T02:16:55.008Z,1011.81
2018-02-09T02:17:55.014Z,1011.77
2018-02-09T02:18:55.021Z,1011.81
2018-02-09T02:19:55.032Z,1011.81
2018-02-09T02:20:55.041Z,1011.77
2018-02-09T02:21:55.047Z,1011.78
2018-02-09T02:22:55.056Z,1011.79
2018-02-09T02:23:55.064Z,1011.75
2018-02-09T02:24:55.073Z,1011.73
2018-02-09T02:25:55.080Z,1011.79
2018-02-09T02:26:55.089Z,1011.76
2018-02-09T02:27:55.097Z,1011.75
2018-02-09T02:28:55.105Z,1011.76
2018-02-09T02:29:55.113Z,1011.76
2018-02-09T02:30:55.121Z,1011.76
2018-02-09T02:31:55.135Z,1011.75
2018-02-09T02:32:55.139Z,1011.76
2018-02-09T02:33:55.147Z,1011.75
2018-02-09T02:34:55.198Z,1011.73
2018-02-09T02:35:55.165Z,1011.73
2018-02-09T02:36:55.173Z,1011.71
2018-02-09T02:37:55.180Z,1011.73
2018-02-09T02:38:55.188Z,1011.71
2018-02-09T02:39:55.197Z,1011.72
2018-02-09T02:40:55.205Z,1011.69
2018-02-09T02:41:55.215Z,1011.67
2018-02-09T02:42:55.223Z,1011.63
2018-02-09T02:43:55.230Z,1011.66
2018-02-09T02:44:55.239Z,1011.65
2018-02-09T02:45:55.247Z,1011.60
2018-02-09T02:46:55.260Z,1011.61
2018-02-09T02:47:55.264Z,1011.58
2018-02-09T02:48:55.273Z,1011.61
2018-02-09T02:49:55.280Z,1011.58
2018-02-09T02:50:55.289Z,1011.63
2018-02-09T02:51:55.295Z,1011.58
2018-02-09T02:52:55.305Z,1011.56
2018-02-09T02:53:55.313Z,1011.56
2018-02-09T02:54:55.321Z,1011.48
2018-02-09T02:55:55.330Z,1011.46
2018-02-09T02:56:55.339Z,1011.44
2018-02-09T02:57:55.345Z,1011.45
2018-02-09T02:58:55.454Z,1011.44
2018-02-09T02:59:55.362Z,1011.45
2018-02-09T03:00:55.403Z,1011.46
2018-02-09T03:01:55.381Z,1011.43
2018-02-09T03:02:55.387Z,1011.46
2018-02-09T03:03:55.396Z,1011.43
2018-02-09T03:04:55.403Z,1011.45
2018-02-09T03:05:55.412Z,1011.40
2018-02-09T03:06:55.419Z,1011.40
2018-02-09T03:07:55.428Z,1011.32
2018-02-09T03:08:55.440Z,1011.37
2018-02-09T03:09:55.444Z,1011.35
2018-02-09T03:10:55.451Z,1011.28
2018-02-09T03:11:55.461Z,1011.28
2018-02-09T03:12:55.469Z,1011.29
2018-02-09T03:13:55.476Z,1011.27
2018-02-09T03:14:55.484Z,1011.27
2018-02-09T03:15:55.594Z,1011.26
2018-02-09T03:16:55.502Z,1011.27
2018-02-09T03:17:55.509Z,1011.21
2018-02-09T03:18:55.516Z,1011.24
2018-02-09T03:19:55.526Z,1011.19
2018-02-09T03:20:55.535Z,1011.18
2018-02-09T03:21:55.545Z,1011.23
2018-02-09T03:22:55.550Z,1011.19
2018-02-09T03:23:55.561Z,1011.16
2018-02-09T03:24:55.571Z,1011.14
2018-02-09T03:25:55.574Z,1011.17
2018-02-09T03:26:55.583Z,1011.14
2018-02-09T03:27:55.589Z,1011.12
2018-02-09T03:28:55.598Z,1011.08
2018-02-09T03:29:55.606Z,1011.01
2018-02-09T03:30:55.725Z,1011.04
2018-02-09T03:31:55.626Z,1011.02
2018-02-09T03:32:55.631Z,1011.05
2018-02-09T03:33:55.640Z,1010.99
2018-02-09T03:34:55.647Z,1011.00
2018-02-09T03:35:55.656Z,1010.99
2018-02-09T03:36:55.664Z,1010.96
2018-02-09T03:37:55.672Z,1010.98
2018-02-09T03:38:55.680Z,1010.94
2018-02-09T03:39:55.682Z,1010.95
2018-02-09T03:40:55.686Z,1010.98
2018-02-09T03:41:55.693Z,1010.96
2018-02-09T03:42:55.700Z,1010.92
2018-02-09T03:43:55.709Z,1010.96
2018-02-09T03:44:55.718Z,1010.95
2018-02-09T03:45:55.825Z,1010.95
2018-02-09T03:46:55.734Z,1010.95
2018-02-09T03:47:55.743Z,1010.91
2018-02-09T03:48:55.751Z,1010.91
2018-02-09T03:49:55.759Z,1010.98
2018-02-09T03:50:55.768Z,1010.93
2018-02-09T03:51:55.776Z,1010.87
2018-02-09T03:52:55.785Z,1010.89
2018-02-09T03:53:55.793Z,1010.89
2018-02-09T03:54:55.801Z,1010.92
2018-02-09T03:55:55.816Z,1010.88
2018-02-09T03:56:55.816Z,1010.87
2018-02-09T03:57:55.827Z,1010.89
2018-02-09T03:58:55.833Z,1010.88
2018-02-09T03:59:55.843Z,1010.87
2018-02-09T04:00:55.851Z,1010.85
2018-02-09T04:01:55.857Z,1010.87
2018-02-09T04:02:55.868Z,1010.88
2018-02-09T04:03:55.875Z,1010.84
2018-02-09T04:04:55.882Z,1010.79
2018-02-09T04:05:55.891Z,1010.80
2018-02-09T04:06:55.900Z,1010.82
2018-02-09T04:07:55.908Z,1010.82
2018-02-09T04:08:55.919Z,1010.80
2018-02-09T04:09:55.925Z,1010.79
2018-02-09T04:10:55.933Z,1010.75
2018-02-09T04:11:55.946Z,1010.76
2018-02-09T04:12:55.951Z,1010.78
2018-02-09T04:13:55.970Z,1010.78
2018-02-09T04:14:55.966Z,1010.73
2018-02-09T04:15:55.980Z,1010.70
2018-02-09T04:16:55.982Z,1010.65
2018-02-09T04:17:55.992Z,1010.69
2018-02-09T04:18:55.999Z,1010.68
2018-02-09T04:19:56.007Z,1010.66
2018-02-09T04:20:56.016Z,1010.62
2018-02-09T04:21:56.024Z,1010.67
2018-02-09T04:22:56.032Z,1010.64
2018-02-09T04:23:56.041Z,1010.61
2018-02-09T04:24:56.050Z,1010.66
2018-02-09T04:25:56.058Z,1010.63
2018-02-09T04:26:56.066Z,1010.60
2018-02-09T04:27:56.076Z,1010.60
2018-02-09T04:28:56.083Z,1010.57
2018-02-09T04:29:56.090Z,1010.57
2018-02-09T04:30:56.098Z,1010.57
2018-02-09T04:31:56.108Z,1010.58
2018-02-09T04:32:56.115Z,1010.54
2018-02-09T04:33:56.123Z,1010.57
2018-02-09T04:34:56.132Z,1010.56
2018-02-09T04:35:56.191Z,1010.57
2018-02-09T04:36:56.150Z,1010.54
2018-02-09T04:37:56.156Z,1010.55
2018-02-09T04:38:56.165Z,1010.54
2018-02-09T04:39:56.173Z,1010.61
2018-02-09T04:40:56.182Z,1010.55
2018-02-09T04:41:56.191Z,1010.53
2018-02-09T04:42:56.199Z,1010.55
2018-02-09T04:43:56.207Z,1010.58
2018-02-09T04:44:56.215Z,1010.54
2018-02-09T04:45:56.224Z,1010.58
2018-02-09T04:46:56.231Z,1010.64
2018-02-09T04:47:56.242Z,1010.62
2018-02-09T04:48:56.248Z,1010.49
2018-02-09T04:49:56.258Z,1010.53
2018-02-09T04:50:56.266Z,1010.57
2018-02-09T04:51:56.274Z,1010.52
2018-02-09T04:52:56.283Z,1010.50
2018-02-09T04:53:56.291Z,1010.49
2018-02-09T04:54:56.399Z,1010.44
2018-02-09T04:55:56.307Z,1010.47
2018-02-09T04:56:56.317Z,1010.46
2018-02-09T04:57:56.324Z,1010.45
2018-02-09T04:58:56.331Z,1010.46
2018-02-09T04:59:56.341Z,1010.42
2018-02-09T05:00:56.350Z,1010.44
2018-02-09T05:01:56.358Z,1010.43
2018-02-09T05:02:56.365Z,1010.44
2018-02-09T05:03:56.374Z,1010.48
2018-02-09T05:04:56.383Z,1010.41
2018-02-09T05:05:56.390Z,1010.41
2018-02-09T05:06:56.398Z,1010.46
2018-02-09T05:07:56.408Z,1010.40
2018-02-09T05:08:56.519Z,1010.41
2018-02-09T05:09:56.426Z,1010.41
2018-02-09T05:10:56.435Z,1010.36
2018-02-09T05:11:56.434Z,1010.40
2018-02-09T05:12:56.444Z,1010.39
2018-02-09T05:13:56.450Z,1010.41
2018-02-09T05:14:56.458Z,1010.42
2018-02-09T05:15:56.468Z,1010.40
2018-02-09T05:16:56.476Z,1010.37
2018-02-09T05:17:56.584Z,1010.37
2018-02-09T05:18:56.492Z,1010.34
2018-02-09T05:19:56.601Z,1010.33
2018-02-09T05:20:56.510Z,1010.32
2018-02-09T05:21:56.517Z,1010.30
2018-02-09T05:22:56.526Z,1010.30
2018-02-09T05:23:56.534Z,1010.28
2018-02-09T05:24:56.542Z,1010.29
2018-02-09T05:25:56.650Z,1010.29
2018-02-09T05:26:56.570Z,1010.31
2018-02-09T05:27:56.579Z,1010.29
2018-02-09T05:28:56.634Z,1010.31
2018-02-09T05:29:56.594Z,1010.28
2018-02-09T05:30:56.603Z,1010.27
2018-02-09T05:31:56.613Z,1010.25
2018-02-09T05:32:56.620Z,1010.28
2018-02-09T05:33:56.678Z,1010.22
2018-02-09T05:34:56.637Z,1010.23
2018-02-09T05:35:56.644Z,1010.22
2018-02-09T05:36:56.653Z,1010.21
2018-02-09T05:37:56.660Z,1010.19
2018-02-09T05:38:56.667Z,1010.22
2018-02-09T05:39:56.677Z,1010.20
2018-02-09T05:40:56.686Z,1010.18
2018-02-09T05:41:56.694Z,1010.14
2018-02-09T05:42:56.702Z,1010.18
2018-02-09T05:43:56.710Z,1010.14
2018-02-09T05:44:56.719Z,1010.17
2018-02-09T05:45:56.728Z,1010.14
2018-02-09T05:46:56.734Z,1010.12
2018-02-09T05:47:56.744Z,1010.11
2018-02-09T05:48:56.852Z,1010.11
2018-02-09T05:49:56.760Z,1010.10
2018-02-09T05:50:56.768Z,1010.11
2018-02-09T05:51:56.776Z,1010.09
2018-02-09T05:52:56.788Z,1010.06
2018-02-09T05:53:56.792Z,1010.06
2018-02-09T05:54:56.799Z,1010.09
2018-02-09T05:55:56.809Z,1010.07
2018-02-09T05:56:56.817Z,1010.01
2018-02-09T05:57:56.827Z,1010.03
2018-02-09T05:58:56.833Z,1010.00
2018-02-09T05:59:56.842Z,1010.02
2018-02-09T06:00:56.853Z,1010.02
2018-02-09T06:01:56.859Z,1010.00
2018-02-09T06:02:56.867Z,1009.99
2018-02-09T06:03:56.875Z,1010.01
2018-02-09T06:04:56.884Z,1009.93
2018-02-09T06:05:56.890Z,1009.96
2018-02-09T06:06:56.899Z,1009.98
2018-02-09T06:07:56.909Z,1009.95
2018-02-09T06:08:56.917Z,1009.89
2018-02-09T06:09:56.924Z,1009.96
2018-02-09T06:10:56.932Z,1009.96
2018-02-09T06:11:56.939Z,1009.93
2018-02-09T06:12:56.951Z,1009.91
2018-02-09T06:13:56.956Z,1009.93
2018-02-09T06:14:56.967Z,1009.91
2018-02-09T06:15:56.974Z,1009.89
2018-02-09T06:16:56.981Z,1009.89
2018-02-09T06:17:56.989Z,1009.89
2018-02-09T06:18:56.998Z,1009.86
2018-02-09T06:19:57.005Z,1009.85
2018-02-09T06:20:57.016Z,1009.86
2018-02-09T06:21:57.021Z,1009.88
2018-02-09T06:22:57.030Z,1009.85
2018-02-09T06:23:57.040Z,1009.85
2018-02-09T06:24:57.048Z,1009.88
2018-02-09T06:25:57.055Z,1009.85
2018-02-09T06:26:57.062Z,1009.84
2018-02-09T06:27:57.070Z,1009.86
2018-02-09T06:28:57.180Z,1009.84
2018-02-09T06:29:57.087Z,1009.87
2018-02-09T06:30:57.097Z,1009.79
2018-02-09T06:31:57.104Z,1009.82
2018-02-09T06:32:57.113Z,1009.84
2018-02-09T06:33:57.120Z,1009.83
2018-02-09T06:34:57.127Z,1009.86
2018-02-09T06:35:57.138Z,1009.84
2018-02-09T06:36:57.145Z,1009.84
2018-02-09T06:37:57.153Z,1009.82
2018-02-09T06:38:57.161Z,1009.82
2018-02-09T06:39:57.168Z,1009.81
2018-02-09T06:40:57.178Z,1009.83
2018-02-09T06:41:57.186Z,1009.82
2018-02-09T06:42:57.194Z,1009.83
2018-02-09T06:43:57.204Z,1009.87
2018-02-09T06:44:57.210Z,1009.82
2018-02-09T06:45:57.219Z,1009.86
2018-02-09T06:46:57.227Z,1009.88
2018-02-09T06:47:57.234Z,1009.88
2018-02-09T06:48:57.344Z,1009.89
2018-02-09T06:49:57.252Z,1009.85
2018-02-09T06:50:57.260Z,1009.89
2018-02-09T06:51:57.268Z,1009.90
2018-02-09T06:52:57.277Z,1009.85
2018-02-09T06:53:57.284Z,1009.87
2018-02-09T06:54:57.294Z,1009.86
2018-02-09T06:55:57.301Z,1009.85
2018-02-09T06:56:57.310Z,1009.85
2018-02-09T06:57:57.317Z,1009.84
2018-02-09T06:58:57.328Z,1009.86
2018-02-09T06:59:57.338Z,1009.79
2018-02-09T07:00:57.345Z,1009.80
2018-02-09T07:01:57.350Z,1009.81
2018-02-09T07:02:57.360Z,1009.77
2018-02-09T07:03:57.369Z,1009.77
2018-02-09T07:04:57.376Z,1009.78
2018-02-09T07:05:57.384Z,1009.72
2018-02-09T07:06:57.394Z,1009.72
2018-02-09T07:07:57.403Z,1009.70
2018-02-09T07:08:57.409Z,1009.68
2018-02-09T07:09:57.417Z,1009.68
2018-02-09T07:10:57.425Z,1009.70
2018-02-09T07:11:57.434Z,1009.63
2018-02-09T07:12:57.446Z,1009.67
2018-02-09T07:13:57.450Z,1009.64
2018-02-09T07:14:57.459Z,1009.70
2018-02-09T07:15:57.467Z,1009.67
2018-02-09T07:16:57.476Z,1009.68
2018-02-09T07:17:57.482Z,1009.61
2018-02-09T07:18:57.492Z,1009.64
2018-02-09T07:19:57.501Z,1009.61
2018-02-09T07:20:57.508Z,1009.63
2018-02-09T07:21:57.504Z,1009.59
2018-02-09T07:22:57.514Z,1009.59
2018-02-09T07:23:57.522Z,1009.58
2018-02-09T07:24:57.530Z,1009.59
2018-02-09T07:25:57.547Z,1009.58
2018-02-09T07:26:57.545Z,1009.58
2018-02-09T07:27:57.554Z,1009.52
2018-02-09T07:28:57.563Z,1009.56
2018-02-09T07:29:57.574Z,1009.58
2018-02-09T07:30:57.578Z,1009.52
2018-02-09T07:31:57.587Z,1009.53
2018-02-09T07:32:57.597Z,1009.49
2018-02-09T07:33:57.642Z,1009.49
2018-02-09T07:34:57.625Z,1009.46
2018-02-09T07:35:57.627Z,1009.44
2018-02-09T07:36:57.648Z,1009.46
2018-02-09T07:37:57.655Z,1009.50
2018-02-09T07:38:57.650Z,1009.44
2018-02-09T07:39:57.757Z,1009.45
2018-02-09T07:40:57.664Z,1009.44
2018-02-09T07:41:57.671Z,1009.45
2018-02-09T07:42:57.693Z,1009.45
2018-02-09T07:43:57.701Z,1009.46
2018-02-09T07:44:57.696Z,1009.47
2018-02-09T07:45:57.704Z,1009.47
2018-02-09T07:46:57.724Z,1009.47
2018-02-09T07:47:57.721Z,1009.47
2018-02-09T07:48:57.730Z,1009.44
2018-02-09T07:49:57.752Z,1009.48
2018-02-09T07:50:57.759Z,1009.42
2018-02-09T07:51:57.764Z,1009.44
2018-02-09T07:52:57.774Z,1009.40
2018-02-09T07:53:57.770Z,1009.37
2018-02-09T07:54:57.945Z,1009.37
2018-02-09T07:55:57.798Z,1009.38
2018-02-09T07:56:57.806Z,1009.41
2018-02-09T07:57:57.815Z,1009.37
2018-02-09T07:58:57.811Z,1009.39
2018-02-09T07:59:57.819Z,1009.35
2018-02-09T08:00:57.830Z,1009.39
2018-02-09T08:01:57.894Z,1009.38
2018-02-09T08:03:57.970Z,1009.36
2018-02-09T08:04:58.534Z,1009.35
2018-02-09T08:06:57.888Z,1009.33
2018-02-09T08:07:57.926Z,1009.35
2018-02-09T08:08:58.140Z,1009.32
2018-02-09T08:09:57.913Z,1009.33
2018-02-09T08:10:57.910Z,1009.31
2018-02-09T08:11:58.085Z,1009.34
2018-02-09T08:12:57.940Z,1009.34
2018-02-09T08:13:57.950Z,1009.27
2018-02-09T08:14:57.948Z,1009.28
2018-02-09T08:15:57.966Z,1009.27
2018-02-09T08:16:57.963Z,1009.24
2018-02-09T08:17:57.978Z,1009.26
2018-02-09T08:18:57.988Z,1009.24
2018-02-09T08:19:58.001Z,1009.17
2018-02-09T08:20:57.996Z,1009.22
2018-02-09T08:21:58.000Z,1009.22
2018-02-09T08:22:58.119Z,1009.20
2018-02-09T08:23:58.028Z,1009.21
2018-02-09T08:24:58.040Z,1009.23
2018-02-09T08:25:58.033Z,1009.21
2018-02-09T08:26:58.052Z,1009.25
2018-02-09T08:27:58.054Z,1009.21
2018-02-09T08:28:58.059Z,1009.17
2018-02-09T08:29:58.079Z,1009.18
2018-02-09T08:30:58.075Z,1009.17
2018-02-09T08:31:58.084Z,1009.16
2018-02-09T08:32:58.205Z,1009.16
2018-02-09T08:33:58.112Z,1009.19
2018-02-09T08:34:58.109Z,1009.18
2018-02-09T08:35:58.121Z,1009.15
2018-02-09T08:36:58.140Z,1009.17
2018-02-09T08:37:58.147Z,1009.17
2018-02-09T08:38:58.155Z,1009.13
2018-02-09T08:39:58.153Z,1009.19
2018-02-09T08:40:58.171Z,1009.16
2018-02-09T08:41:58.180Z,1009.14
2018-02-09T08:42:58.178Z,1009.12
2018-02-09T08:43:58.199Z,1009.12
2018-02-09T08:44:58.295Z,1009.09
2018-02-09T08:45:58.203Z,1009.09
2018-02-09T08:46:58.213Z,1009.14
2018-02-09T08:47:58.233Z,1009.07
2018-02-09T08:48:58.249Z,1009.03
2018-02-09T08:49:58.266Z,1009.09
2018-02-09T08:50:58.458Z,1009.05
2018-02-09T08:52:58.409Z,1009.05
2018-02-09T08:53:58.355Z,1009.06
2018-02-09T08:54:58.510Z,1009.07
2018-02-09T08:55:58.756Z,1009.05
2018-02-09T08:56:58.618Z,1009.03
2018-02-09T08:57:58.808Z,1009.03
2018-02-09T08:58:58.468Z,1009.04
2018-02-09T08:59:58.526Z,1009.07
2018-02-09T09:00:58.337Z,1009.07
2018-02-09T09:01:58.355Z,1009.08
2018-02-09T09:02:58.352Z,1009.09
2018-02-09T09:03:58.372Z,1009.05
2018-02-09T09:04:58.372Z,1009.02
2018-02-09T09:05:58.380Z,1009.03
2018-02-09T09:06:58.389Z,1009.02
2018-02-09T09:07:58.549Z,1009.02
2018-02-09T09:08:58.407Z,1009.00
2018-02-09T09:09:58.416Z,1008.96
2018-02-09T09:10:58.423Z,1008.96
2018-02-09T09:11:58.432Z,1008.93
2018-02-09T09:12:58.442Z,1008.96
2018-02-09T09:13:58.501Z,1008.92
2018-02-09T09:14:58.477Z,1008.88
2018-02-09T09:15:58.482Z,1008.85
2018-02-09T09:16:58.609Z,1008.86
2018-02-09T09:20:58.524Z,1008.83
2018-02-09T09:21:58.521Z,1008.80
2018-02-09T09:22:58.663Z,1008.79
2018-02-09T09:23:58.553Z,1008.80
2018-02-09T09:24:58.559Z,1008.80
2018-02-09T09:25:58.558Z,1008.85
2018-02-09T09:26:58.666Z,1008.87
2018-02-09T09:27:58.591Z,1008.80
2018-02-09T09:28:58.584Z,1008.79
2018-02-09T09:29:58.704Z,1008.84
2018-02-09T09:30:58.601Z,1008.83
2018-02-09T09:31:58.625Z,1008.81
2018-02-09T09:32:58.634Z,1008.81
2018-02-09T09:33:58.642Z,1008.84
2018-02-09T09:34:58.639Z,1008.78
2018-02-09T09:35:58.661Z,1008.80
2018-02-09T09:36:58.667Z,1008.75
2018-02-09T09:37:58.679Z,1008.81
2018-02-09T09:38:58.688Z,1008.79
2018-02-09T09:39:58.696Z,1008.79
2018-02-09T09:40:58.706Z,1008.77
2018-02-09T09:41:58.724Z,1008.82
2018-02-09T09:43:58.722Z,1008.83
2018-02-09T09:44:58.740Z,1008.78
2018-02-09T09:45:58.752Z,1008.83
2018-02-09T09:46:58.748Z,1008.76
2018-02-09T09:47:58.759Z,1008.77
2018-02-09T09:48:58.767Z,1008.75
2018-02-09T09:49:58.791Z,1008.77
2018-02-09T09:50:58.786Z,1008.78
2018-02-09T09:51:58.906Z,1008.77
2018-02-09T09:52:58.816Z,1008.72
2018-02-09T09:53:58.824Z,1008.75
2018-02-09T09:54:58.823Z,1008.72
2018-02-09T09:55:58.831Z,1008.68
2018-02-09T09:56:58.853Z,1008.68
2018-02-09T09:57:58.860Z,1008.60
2018-02-09T09:58:58.870Z,1008.63
2018-02-09T09:59:59.033Z,1008.65
2018-02-09T10:00:58.892Z,1008.64
2018-02-09T10:01:58.901Z,1008.53
2018-02-09T10:02:58.910Z,1008.61
2018-02-09T10:03:59.861Z,1008.58
2018-02-09T10:04:59.654Z,1008.65
2018-02-09T10:05:58.937Z,1008.57
2018-02-09T10:06:58.945Z,1008.60
2018-02-09T10:07:58.954Z,1008.61
2018-02-09T10:08:58.964Z,1008.62
2018-02-09T10:09:58.973Z,1008.65
2018-02-09T10:10:58.970Z,1008.62
2018-02-09T10:11:58.980Z,1008.61
2018-02-09T10:12:58.991Z,1008.63
2018-02-09T10:13:58.999Z,1008.64
2018-02-09T10:14:59.008Z,1008.62
2018-02-09T10:15:59.030Z,1008.55
2018-02-09T10:16:59.028Z,1008.54
2018-02-09T10:17:59.037Z,1008.57
2018-02-09T10:18:59.043Z,1008.54
2018-02-09T10:19:59.056Z,1008.58
2018-02-09T10:20:59.065Z,1008.56
2018-02-09T10:21:59.184Z,1008.56
2018-02-09T10:22:59.084Z,1008.54
2018-02-09T10:23:59.094Z,1008.53
2018-02-09T10:24:59.111Z,1008.50
2018-02-09T10:25:59.122Z,1008.51
2018-02-09T10:26:59.132Z,1008.51
2018-02-09T10:27:59.131Z,1008.49
2018-02-09T10:28:59.531Z,1008.48
2018-02-09T10:29:59.152Z,1008.48
2018-02-09T10:30:59.158Z,1008.49
2018-02-09T10:31:59.184Z,1008.49
2018-02-09T10:32:59.278Z,1008.52
2018-02-09T10:33:59.188Z,1008.50
2018-02-09T10:34:59.197Z,1008.43
2018-02-09T10:35:59.206Z,1008.45
2018-02-09T10:36:59.219Z,1008.43
2018-02-09T10:37:59.224Z,1008.44
2018-02-09T10:38:59.838Z,1008.48
2018-02-09T10:39:59.255Z,1008.43
2018-02-09T10:40:59.257Z,1008.44
2018-02-09T10:41:59.263Z,1008.42
2018-02-09T10:42:59.274Z,1008.38
2018-02-09T10:43:59.283Z,1008.45
2018-02-09T10:44:59.292Z,1008.47
2018-02-09T10:45:59.315Z,1008.46
2018-02-09T10:47:00.900Z,1008.40
2018-02-09T10:47:59.326Z,1008.41
2018-02-09T10:48:59.334Z,1008.39
2018-02-09T10:49:59.355Z,1008.40
2018-02-09T10:50:59.354Z,1008.36
2018-02-09T10:51:59.376Z,1008.38
2018-02-09T10:52:59.373Z,1008.37
2018-02-09T10:53:59.383Z,1008.33
2018-02-09T10:54:59.406Z,1008.31
2018-02-09T10:55:59.403Z,1008.28
2018-02-09T10:56:59.412Z,1008.34
2018-02-09T10:57:59.433Z,1008.28
2018-02-09T10:58:59.430Z,1008.31
2018-02-09T10:59:59.443Z,1008.24
2018-02-09T11:00:59.462Z,1008.26
2018-02-09T11:01:59.462Z,1008.24
2018-02-09T11:02:59.471Z,1008.24
2018-02-09T11:03:59.481Z,1008.21
2018-02-09T11:05:01.175Z,1008.22
2018-02-09T11:06:01.090Z,1008.20
2018-02-09T11:07:00.461Z,1008.21
2018-02-09T11:07:59.532Z,1008.18
2018-02-09T11:08:59.530Z,1008.21
2018-02-09T11:09:59.541Z,1008.24
2018-02-09T11:10:59.551Z,1008.25
2018-02-09T11:11:59.561Z,1008.23
2018-02-09T11:12:59.572Z,1008.26
2018-02-09T11:13:59.687Z,1008.23
2018-02-09T11:15:00.056Z,1008.25
2018-02-09T11:15:59.762Z,1008.26
2018-02-09T11:16:59.669Z,1008.26
2018-02-09T11:17:59.616Z,1008.22
2018-02-09T11:18:59.625Z,1008.23
2018-02-09T11:19:59.650Z,1008.23
2018-02-09T11:20:59.645Z,1008.26
2018-02-09T11:21:59.667Z,1008.27
2018-02-09T11:22:59.665Z,1008.21
2018-02-09T11:23:59.735Z,1008.24
2018-02-09T11:24:59.798Z,1008.21
2018-02-09T11:25:59.707Z,1008.17
2018-02-09T11:26:59.717Z,1008.20
2018-02-09T11:27:59.717Z,1008.18
2018-02-09T11:28:59.737Z,1008.22
2018-02-09T11:29:59.752Z,1008.19
2018-02-09T11:30:59.759Z,1008.21
2018-02-09T11:31:59.823Z,1008.18
2018-02-09T11:32:59.780Z,1008.12
2018-02-09T11:33:59.828Z,1008.17
2018-02-09T11:34:59.807Z,1008.12
2018-02-09T11:35:59.796Z,1008.09
2018-02-09T11:36:59.810Z,1008.15
2018-02-09T11:37:59.858Z,1008.10
2018-02-09T11:38:59.830Z,1008.10
2018-02-09T11:39:59.839Z,1008.09
2018-02-09T11:40:59.889Z,1008.10
2018-02-09T11:41:59.858Z,1008.07
2018-02-09T11:42:59.923Z,1008.00
2018-02-09T11:43:59.889Z,1008.05
2018-02-09T11:44:59.900Z,1008.00
2018-02-09T11:45:59.899Z,1008.01
2018-02-09T11:46:59.919Z,1007.99
2018-02-09T11:47:59.931Z,1007.91
2018-02-09T11:48:59.943Z,1007.91
2018-02-09T11:49:59.949Z,1007.88
2018-02-09T11:50:59.950Z,1007.93
2018-02-09T11:51:59.973Z,1007.97
2018-02-09T11:52:59.981Z,1007.94
2018-02-09T11:53:59.991Z,1007.92
2018-02-09T11:54:59.990Z,1007.93
2018-02-09T11:56:00.003Z,1007.90
2018-02-09T11:57:00.015Z,1007.88
2018-02-09T11:58:00.024Z,1007.87
2018-02-09T11:59:00.033Z,1007.84
2018-02-09T12:00:00.056Z,1007.85
2018-02-09T12:01:00.059Z,1007.84
2018-02-09T12:02:00.063Z,1007.87
2018-02-09T12:03:00.078Z,1007.89
2018-02-09T12:04:00.087Z,1007.86
2018-02-09T12:05:00.107Z,1007.82
2018-02-09T12:06:00.106Z,1007.86
2018-02-09T12:07:00.149Z,1007.86
2018-02-09T12:08:00.137Z,1007.84
2018-02-09T12:09:00.138Z,1007.84
2018-02-09T12:10:00.150Z,1007.83
2018-02-09T12:11:00.160Z,1007.83
2018-02-09T12:12:00.168Z,1007.83
2018-02-09T12:13:00.190Z,1007.85